Latest Weather Observations for Carnarvon

IDW60801

Issued at 11:03 pm WST Monday 25 January 2021 (issued every 10 minutes, with the page automatically refreshed every 10 minutes)

About weather observations | Map of weather stations | Latest weather observations for WA | Other Formats
Station Details ID: 006011 Name: CARNARVON AIRPORT Lat: -24.89 Lon: 113.67 Height: 4.0 m
Data from the previous 72 hours. | See also: Recent months at Carnarvon
Date/Time
WST
Temp
°C
App
Temp
°C
Dew
Point
°C
Rel
Hum
%
Delta-T
°C
Wind Press
QNH
hPa
Press
MSL
hPa
Rain since
9am
mm
Dir  Spd
km/h
Gust
km/h
Spd
kts
Gust
kts
25/11:00pm 23.6 19.8 18.0 71 3.5 S 35 46 19 25 1008.9 1008.9 0.0
25/10:30pm 23.8 20.1 18.4 72 3.4 SSW 35 44 19 24 1008.8 1008.8 0.0
25/10:00pm 24.2 21.0 18.6 71 3.5 SSW 33 43 18 23 1008.7 1008.7 0.0
25/09:30pm 24.4 20.8 18.6 70 3.7 SSW 35 43 19 23 1008.5 1008.5 0.0
25/09:00pm 24.5 21.0 18.7 70 3.7 SSW 35 44 19 24 1008.5 1008.5 0.0
25/08:30pm 24.6 20.5 18.3 68 4.0 SSW 37 44 20 24 1008.2 1008.2 0.0
25/08:00pm 24.7 20.8 17.9 66 4.3 SSW 35 46 19 25 1007.8 1007.8 0.0
25/07:30pm 24.9 21.3 18.6 68 4.0 SSW 35 46 19 25 1007.6 1007.6 0.0
25/07:00pm 25.3 20.8 18.2 64 4.5 SW 39 52 21 28 1007.4 1007.4 0.0
25/06:30pm 26.0 22.2 18.2 62 4.9 SSW 35 48 19 26 1007.1 1007.1 0.0
25/06:00pm 26.8 23.1 18.4 60 5.4 SSW 35 46 19 25 1006.9 1006.9 0.0
25/05:30pm 27.3 24.5 19.1 61 5.3 SSW 32 43 17 23 1006.7 1006.7 0.0
25/05:00pm 27.3 24.7 18.6 59 5.6 SW 30 41 16 22 1006.6 1006.6 0.0
25/04:30pm 27.4 25.2 18.7 59 5.6 SSW 28 35 15 19 1006.8 1006.8 0.0
25/04:00pm 27.2 25.2 18.2 58 5.7 SW 26 35 14 19 1007.1 1007.1 0.0
25/03:30pm 27.5 25.3 17.9 55 6.1 SSW 26 35 14 19 1007.3 1007.3 0.0
25/03:00pm 27.5 25.6 17.7 55 6.2 SW 24 30 13 16 1007.5 1007.5 0.0
25/02:30pm 27.9 25.1 17.4 52 6.6 SSW 28 35 15 19 1007.7 1007.7 0.0
25/02:00pm 28.7 25.1 17.2 49 7.2 SSW 32 37 17 20 1008.0 1008.0 0.0
25/01:30pm 28.2 23.9 15.8 47 7.6 SSW 33 41 18 22 1008.1 1008.1 0.0
25/01:00pm 28.4 24.4 16.3 47 7.5 SSW 32 41 17 22 1008.2 1008.2 0.0
25/12:30pm 28.9 25.4 17.4 49 7.3 SSW 32 41 17 22 1008.5 1008.5 0.0
25/12:00pm 27.7 23.6 16.0 49 7.2 SSW 32 39 17 21 1008.7 1008.7 0.0
25/11:30am 28.4 24.2 15.7 46 7.8 SSW 32 41 17 22 1008.9 1008.9 0.0
25/11:00am 27.8 24.4 15.8 48 7.4 SSW 28 35 15 19 1009.2 1009.2 0.0
25/10:30am 27.1 24.1 16.7 53 6.5 S 28 35 15 19 1009.6 1009.6 0.0
25/10:00am 26.9 24.5 17.4 56 6.0 S 26 32 14 17 1009.8 1009.8 0.0
25/09:30am 25.9 23.0 17.0 58 5.5 S 28 33 15 18 1010.0 1010.0 0.0
25/09:00am 25.3 23.5 17.0 60 5.1 S 22 28 12 15 1010.1 1010.1 0.0
25/08:30am 25.1 23.0 17.1 61 5.0 SSE 24 32 13 17 1010.0 1010.0 0.0
25/08:00am 24.6 22.0 16.8 62 4.8 SSE 26 32 14 17 1010.1 1010.1 0.0
25/07:30am 23.6 21.6 17.3 67 3.9 SE 24 32 13 17 1010.2 1010.2 0.0
25/07:00am 23.3 21.6 18.0 72 3.3 SE 24 32 13 17 1010.0 1010.0 0.0
25/06:30am 23.1 21.8 18.2 74 3.1 S 22 32 12 17 1009.5 1009.5 0.0
25/06:00am 22.5 20.8 17.2 72 3.3 S 22 26 12 14 1009.2 1009.2 0.0
25/05:30am 22.4 20.9 16.7 70 3.5 S 20 26 11 14 1009.0 1009.0 0.0
25/05:00am 22.1 20.6 16.4 70 3.5 S 19 22 10 12 1008.8 1008.8 0.0
25/04:30am 22.8 20.2 16.8 69 3.7 S 26 32 14 17 1008.6 1008.6 0.0
25/04:00am 22.7 20.0 16.7 69 3.7 S 26 33 14 18 1008.5 1008.5 0.0
25/03:30am 23.0 20.1 17.0 69 3.7 S 28 37 15 20 1008.3 1008.3 0.0
25/03:00am 23.0 20.7 17.5 71 3.4 S 26 33 14 18 1008.3 1008.3 0.0
25/02:30am 23.1 20.9 17.8 72 3.3 S 26 33 14 18 1008.4 1008.4 0.0
25/02:00am 23.6 20.6 17.8 70 3.6 S 30 41 16 22 1008.5 1008.5 0.0
25/01:30am 23.5 20.6 17.9 71 3.5 S 30 37 16 20 1008.6 1008.6 0.0
25/01:00am 23.6 21.0 18.7 74 3.1 S 30 39 16 21 1008.7 1008.7 0.0
25/12:30am 23.8 20.9 18.9 74 3.1 S 32 44 17 24 1008.6 1008.6 0.0
25/12:00am 24.1 21.4 19.6 76 2.9 S 33 43 18 23 1008.9 1008.9 0.0
 
Date/Time
WST
Temp
°C
App
Temp
°C
Dew
Point
°C
Rel
Hum
%
Delta-T
°C
Wind Press
QNH
hPa
Press
MSL
hPa
Rain since
9am
mm
Dir  Spd
km/h
Gust
km/h
Spd
kts
Gust
kts
24/11:30pm 24.3 21.7 19.6 75 3.0 S 32 41 17 22 1009.2 1009.2 0.0
24/11:00pm 24.5 22.1 20.0 76 2.9 SSW 32 41 17 22 1009.3 1009.3 0.0
24/10:30pm 24.3 21.2 19.6 75 3.0 SSW 35 44 19 24 1009.1 1009.1 0.0
24/10:00pm 24.5 21.9 19.8 75 3.0 SSW 33 43 18 23 1008.9 1008.9 0.0
24/09:30pm 24.6 21.5 19.7 74 3.2 SSW 35 44 19 24 1008.9 1008.9 0.0
24/09:00pm 24.7 21.4 19.3 72 3.5 SSW 35 43 19 23 1008.7 1008.7 0.0
24/08:30pm 24.8 22.1 19.2 71 3.6 SSW 32 43 17 23 1008.7 1008.7 0.0
24/08:00pm 24.8 21.9 20.1 75 3.1 SSW 35 44 19 24 1008.5 1008.5 0.0
24/07:30pm 25.1 21.9 19.5 71 3.6 SSW 35 46 19 25 1008.2 1008.2 0.0
24/07:00pm 25.5 22.3 19.4 69 3.9 SW 35 46 19 25 1008.1 1008.1 0.0
24/06:30pm 26.3 22.6 18.4 61 5.0 SW 35 44 19 24 1007.9 1007.9 0.0
24/06:00pm 26.9 23.7 18.7 60 5.3 SW 33 44 18 24 1007.6 1007.6 0.0
24/05:30pm 27.4 23.7 18.4 58 5.7 SW 35 46 19 25 1007.4 1007.4 0.0
24/05:00pm 27.9 24.6 18.0 55 6.3 SW 32 46 17 25 1007.5 1007.5 0.0
24/04:30pm 27.4 23.6 16.7 52 6.7 SW 32 39 17 21 1007.4 1007.4 0.0
24/04:00pm 27.6 24.8 17.2 53 6.5 SW 28 35 15 19 1007.5 1007.5 0.0
24/03:30pm 27.5 24.9 17.7 55 6.2 SW 28 37 15 20 1007.8 1007.8 0.0
24/03:00pm 27.8 25.6 17.0 51 6.8 SW 24 28 13 15 1008.1 1008.1 0.0
24/02:30pm 28.6 26.6 17.5 51 7.0 SW 24 33 13 18 1008.2 1008.2 0.0
24/02:00pm 27.9 25.8 17.1 51 6.8 SW 24 35 13 19 1008.4 1008.4 0.0
24/01:30pm 28.2 26.3 16.8 50 7.1 SW 22 30 12 16 1008.6 1008.6 0.0
24/01:00pm 27.5 25.5 16.5 51 6.8 SW 22 32 12 17 1008.8 1008.8 0.0
24/12:30pm 28.1 26.2 16.7 50 7.1 SSW 22 30 12 16 1009.0 1009.0 0.0
24/12:00pm 27.6 24.8 15.3 47 7.5 SSW 24 32 13 17 1009.3 1009.3 0.0
24/11:30am 27.2 24.2 14.9 47 7.4 SSW 24 30 13 16 1009.6 1009.6 0.0
24/11:00am 28.0 25.4 16.0 48 7.4 SSW 24 28 13 15 1009.7 1009.7 0.0
24/10:30am 26.2 23.8 16.4 54 6.0 SW 24 32 13 17 1009.9 1009.9 0.0
24/10:00am 26.6 24.5 16.2 52 6.4 SSW 22 26 12 14 1009.8 1009.8 0.0
24/09:30am 26.7 24.9 16.0 52 6.6 SW 20 30 11 16 1009.7 1009.7 0.0
24/09:00am 25.2 22.6 14.9 52 6.2 SSW 22 28 12 15 1009.6 1009.6 0.0
24/08:30am 24.7 21.7 14.8 54 5.9 SW 24 30 13 16 1009.7 1009.7 0.0
24/08:00am 24.5 22.3 16.0 59 5.2 SSW 22 33 12 18 1009.5 1009.5 0.0
24/07:30am 23.8 20.6 15.3 59 5.1 SSW 26 33 14 18 1009.3 1009.3 0.0
24/07:00am 23.9 21.2 15.7 60 5.0 SSW 24 33 13 18 1008.9 1008.9 0.0
24/06:30am 23.5 20.9 15.8 62 4.6 SSW 24 30 13 16 1008.4 1008.4 0.0
24/06:00am 23.4 20.7 15.7 62 4.6 SSW 24 35 13 19 1008.0 1008.0 0.0
24/05:30am 23.5 21.1 15.5 60 4.8 SW 22 30 12 16 1007.7 1007.7 0.0
24/05:00am 23.6 20.5 15.6 61 4.8 SSW 26 32 14 17 1007.5 1007.5 0.0
24/04:30am 23.5 21.6 15.8 62 4.6 SW 20 26 11 14 1007.5 1007.5 0.0
24/04:00am 23.4 21.1 15.7 62 4.6 SW 22 32 12 17 1007.5 1007.5 0.0
24/03:30am 23.5 21.6 15.8 62 4.6 SW 20 32 11 17 1007.6 1007.6 0.0
24/03:00am 23.6 21.4 15.9 62 4.7 SW 22 30 12 16 1007.7 1007.7 0.0
24/02:30am 23.6 22.0 16.4 64 4.4 SW 20 26 11 14 1007.7 1007.7 0.0
24/02:00am 23.8 21.7 16.1 62 4.7 SW 22 30 12 16 1007.6 1007.6 0.0
24/01:30am 23.8 21.7 16.1 62 4.7 SW 22 30 12 16 1007.6 1007.6 0.0
24/01:00am 23.7 21.4 15.7 61 4.8 SW 22 28 12 15 1007.8 1007.8 0.0
24/12:30am 23.8 22.1 16.3 63 4.6 SW 20 28 11 15 1007.8 1007.8 0.0
24/12:00am 24.0 22.5 16.8 64 4.4 SW 20 30 11 16 1007.8 1007.8 0.0
 
Date/Time
WST
Temp
°C
App
Temp
°C
Dew
Point
°C
Rel
Hum
%
Delta-T
°C
Wind Press
QNH
hPa
Press
MSL
hPa
Rain since
9am
mm
Dir  Spd
km/h
Gust
km/h
Spd
kts
Gust
kts
23/11:30pm 24.3 22.5 17.8 67 4.1 SW 24 32 13 17 1007.9 1007.9 0.0
23/11:00pm 24.3 22.0 16.6 62 4.7 SW 24 33 13 18 1008.0 1008.0 0.0
23/10:30pm 24.5 22.1 16.5 61 4.9 SW 24 37 13 20 1008.2 1008.2 0.0
23/10:00pm 24.5 22.0 17.2 63 4.5 SW 26 35 14 19 1008.1 1008.1 0.0
23/09:30pm 24.6 22.6 17.3 64 4.5 SW 24 33 13 18 1008.3 1008.3 0.0
23/09:00pm 24.8 22.9 18.5 68 4.0 SW 26 32 14 17 1008.2 1008.2 0.0
23/08:30pm 24.9 23.3 18.4 67 4.1 WSW 24 33 13 18 1007.9 1007.9 0.0
23/08:00pm 24.9 23.7 18.4 67 4.1 WSW 22 33 12 18 1007.7 1007.7 0.0
23/07:30pm 25.0 22.9 18.0 65 4.4 WSW 26 33 14 18 1007.4 1007.4 0.0
23/07:00pm 25.4 23.7 18.1 64 4.6 WSW 24 35 13 19 1007.3 1007.3 0.0
23/06:30pm 26.1 24.0 19.0 65 4.5 WSW 28 37 15 20 1006.6 1006.6 0.0
23/06:00pm 27.0 25.2 18.8 60 5.3 WSW 26 35 14 19 1006.3 1006.3 0.0
23/05:30pm 26.6 24.8 18.7 62 5.0 WSW 26 35 14 19 1006.2 1006.2 0.0
23/05:00pm 27.2 25.2 18.2 58 5.7 W 26 33 14 18 1006.0 1006.0 0.0
23/04:30pm 27.7 26.3 18.7 58 5.8 W 24 33 13 18 1005.8 1005.8 0.0
23/04:00pm 27.9 25.5 19.1 58 5.7 W 30 39 16 21 1005.8 1005.8 0.0
23/03:30pm 27.5 25.3 18.8 59 5.6 WSW 28 35 15 19 1005.8 1005.8 0.0
23/03:00pm 28.1 25.9 18.8 57 6.0 WSW 28 35 15 19 1005.8 1005.8 0.0
23/02:30pm 28.6 26.6 19.2 56 6.1 WSW 28 35 15 19 1005.6 1005.6 0.0
23/02:00pm 28.2 26.5 18.9 57 6.0 WSW 26 35 14 19 1005.6 1005.6 0.0
23/01:30pm 28.4 26.2 18.8 56 6.2 WSW 28 39 15 21 1005.7 1005.7 0.0
23/01:00pm 28.5 26.4 18.9 56 6.2 WSW 28 33 15 18 1005.8 1005.8 0.0
23/12:30pm 27.4 26.0 18.7 59 5.6 WSW 24 33 13 18 1005.8 1005.8 0.0
23/12:00pm 29.4 27.8 19.1 54 6.7 WSW 26 35 14 19 1006.0 1006.0 0.0
23/11:30am 28.5 26.3 18.6 55 6.4 SW 28 37 15 20 1006.0 1006.0 0.0
23/11:00am 28.4 26.4 19.1 57 6.0 SW 28 35 15 19 1006.3 1006.3 0.0
23/10:30am 28.0 26.8 19.2 58 5.7 SW 24 32 13 17 1006.5 1006.5 0.0
23/10:00am 27.4 26.0 19.7 63 5.0 SW 26 33 14 18 1006.4 1006.4 0.0
23/09:30am 27.1 25.5 19.2 62 5.1 SW 26 32 14 17 1006.3 1006.3 0.0
23/09:00am 26.9 26.1 20.0 66 4.5 SSW 24 32 13 17 1006.1 1006.1 0.0
23/08:30am 26.9 25.3 19.3 63 4.9 SSW 26 32 14 17 1006.1 1006.1 0.0
23/08:00am 26.1 24.9 19.2 65 4.4 SSW 24 30 13 16 1006.0 1006.0 0.0
23/07:30am 25.8 25.2 19.7 69 3.9 SSW 22 30 12 16 1005.7 1005.7 0.0
23/07:00am 25.0 24.4 19.8 73 3.4 SSW 22 32 12 17 1005.4 1005.4 0.0
23/06:30am 24.4 24.3 19.9 76 2.9 SW 20 26 11 14 1005.3 1005.3 0.0
23/06:00am 24.2 23.6 19.7 76 2.9 SW 22 30 12 16 1005.0 1005.0 0.0
23/05:30am 23.9 23.6 19.6 77 2.8 SW 20 26 11 14 1004.6 1004.6 0.0
23/05:00am 23.9 23.8 20.0 79 2.5 SW 20 28 11 15 1004.4 1004.4 0.0
23/04:30am 24.0 23.8 20.5 81 2.3 SW 22 32 12 17 1004.3 1004.3 0.0
23/04:00am 24.2 24.3 21.1 83 2.0 SW 22 28 12 15 1004.4 1004.4 0.0
23/03:30am 24.2 23.3 20.7 81 2.3 SW 26 35 14 19 1004.2 1004.2 0.0
23/03:00am 24.4 24.2 21.3 83 2.0 SW 24 32 13 17 1004.4 1004.4 0.0
23/02:30am 24.4 24.1 21.1 82 2.2 SW 24 33 13 18 1004.7 1004.7 0.0
23/02:00am 24.4 24.2 21.3 83 2.0 SW 24 33 13 18 1004.7 1004.7 0.0
23/01:30am 24.5 24.4 21.4 83 2.0 SW 24 33 13 18 1004.7 1004.7 0.0
23/01:00am 24.4 23.3 21.1 82 2.2 SW 28 37 15 20 1004.9 1004.9 0.0
23/12:30am 24.6 24.0 21.9 85 1.8 SSW 28 37 15 20 1005.0 1005.0 0.0
23/12:00am 24.8 24.4 21.7 83 2.1 SW 26 35 14 19 1005.2 1005.2 0.0
 
Date/Time
WST
Temp
°C
App
Temp
°C
Dew
Point
°C
Rel
Hum
%
Delta-T
°C
Wind Press
QNH
hPa
Press
MSL
hPa
Rain since
9am
mm
Dir  Spd
km/h
Gust
km/h
Spd
kts
Gust
kts
22/11:30pm 24.9 23.7 21.6 82 2.2 SSW 30 39 16 21 1005.5 1005.5 0.0

Other formats

Comma delimited format used in spreadsheet applications
http://www.bom.gov.au/fwo/IDW60801/IDW60801.94300.axf

JavaScript Object Notation format (JSON) in row-major order
http://www.bom.gov.au/fwo/IDW60801/IDW60801.94300.json

Data quality

Most of these data are generated automatically and are frequently updated. Quality checks on data are not normally performed. It is possible for incorrect values to appear. Refer to information at About Latest Weather Observations and please check the disclaimer before using these data.